sensor_id;sensor_type;location;lat;lon;timestamp;P1;durP1;ratioP1;P2;durP2;ratioP2
43857;SDS011;29507;51.284;5.758;2023-04-28T00:00:54;9.85;;;5.53;;
43857;SDS011;29507;51.284;5.758;2023-04-28T00:03:19;10.07;;;5.20;;
43857;SDS011;29507;51.284;5.758;2023-04-28T00:05:45;11.52;;;5.78;;
43857;SDS011;29507;51.284;5.758;2023-04-28T00:08:11;15.52;;;6.72;;
43857;SDS011;29507;51.284;5.758;2023-04-28T00:10:37;12.40;;;6.07;;
43857;SDS011;29507;51.284;5.758;2023-04-28T00:13:02;15.93;;;5.78;;
43857;SDS011;29507;51.284;5.758;2023-04-28T00:15:28;16.02;;;7.00;;
43857;SDS011;29507;51.284;5.758;2023-04-28T00:17:54;16.73;;;6.15;;
43857;SDS011;29507;51.284;5.758;2023-04-28T00:20:20;15.02;;;6.60;;
43857;SDS011;29507;51.284;5.758;2023-04-28T00:22:45;13.07;;;6.15;;
43857;SDS011;29507;51.284;5.758;2023-04-28T00:25:13;13.38;;;6.35;;
43857;SDS011;29507;51.284;5.758;2023-04-28T00:27:38;11.70;;;5.55;;
43857;SDS011;29507;51.284;5.758;2023-04-28T00:30:04;11.65;;;6.07;;
43857;SDS011;29507;51.284;5.758;2023-04-28T00:32:30;17.48;;;7.90;;
43857;SDS011;29507;51.284;5.758;2023-04-28T00:34:56;15.65;;;6.95;;
43857;SDS011;29507;51.284;5.758;2023-04-28T00:37:21;14.10;;;7.15;;
43857;SDS011;29507;51.284;5.758;2023-04-28T00:39:47;16.00;;;6.75;;
43857;SDS011;29507;51.284;5.758;2023-04-28T00:42:13;14.40;;;6.40;;
43857;SDS011;29507;51.284;5.758;2023-04-28T00:44:39;14.45;;;7.10;;
43857;SDS011;29507;51.284;5.758;2023-04-28T00:47:05;12.45;;;6.78;;
43857;SDS011;29507;51.284;5.758;2023-04-28T00:49:32;13.57;;;6.68;;
43857;SDS011;29507;51.284;5.758;2023-04-28T00:52:05;15.18;;;7.88;;
43857;SDS011;29507;51.284;5.758;2023-04-28T00:54:32;15.40;;;7.47;;
43857;SDS011;29507;51.284;5.758;2023-04-28T00:56:58;14.77;;;6.72;;
43857;SDS011;29507;51.284;5.758;2023-04-28T00:59:27;19.90;;;7.23;;
43857;SDS011;29507;51.284;5.758;2023-04-28T01:01:53;17.95;;;7.53;;
43857;SDS011;29507;51.284;5.758;2023-04-28T01:04:19;16.20;;;7.07;;
43857;SDS011;29507;51.284;5.758;2023-04-28T01:06:45;12.50;;;6.28;;
43857;SDS011;29507;51.284;5.758;2023-04-28T01:09:12;14.07;;;6.90;;
43857;SDS011;29507;51.284;5.758;2023-04-28T01:11:37;19.40;;;6.85;;
43857;SDS011;29507;51.284;5.758;2023-04-28T01:14:03;20.30;;;8.27;;
43857;SDS011;29507;51.284;5.758;2023-04-28T01:16:29;17.13;;;7.28;;
43857;SDS011;29507;51.284;5.758;2023-04-28T01:18:56;13.68;;;7.07;;
43857;SDS011;29507;51.284;5.758;2023-04-28T01:21:31;12.75;;;6.90;;
43857;SDS011;29507;51.284;5.758;2023-04-28T01:23:58;16.92;;;8.40;;
43857;SDS011;29507;51.284;5.758;2023-04-28T01:26:25;12.95;;;6.15;;
43857;SDS011;29507;51.284;5.758;2023-04-28T01:28:51;11.85;;;6.35;;
43857;SDS011;29507;51.284;5.758;2023-04-28T01:31:17;13.60;;;7.15;;
43857;SDS011;29507;51.284;5.758;2023-04-28T01:33:42;14.23;;;7.43;;
43857;SDS011;29507;51.284;5.758;2023-04-28T01:36:08;16.75;;;7.45;;
43857;SDS011;29507;51.284;5.758;2023-04-28T01:38:34;14.82;;;7.70;;
43857;SDS011;29507;51.284;5.758;2023-04-28T01:40:59;15.50;;;7.18;;
43857;SDS011;29507;51.284;5.758;2023-04-28T01:43:26;16.30;;;7.47;;
43857;SDS011;29507;51.284;5.758;2023-04-28T01:45:52;14.98;;;7.13;;
43857;SDS011;29507;51.284;5.758;2023-04-28T01:48:17;15.70;;;6.93;;
43857;SDS011;29507;51.284;5.758;2023-04-28T01:50:43;15.95;;;7.28;;
43857;SDS011;29507;51.284;5.758;2023-04-28T01:53:09;14.13;;;6.90;;
43857;SDS011;29507;51.284;5.758;2023-04-28T01:55:36;21.00;;;7.20;;
43857;SDS011;29507;51.284;5.758;2023-04-28T01:58:02;17.15;;;6.80;;
43857;SDS011;29507;51.284;5.758;2023-04-28T02:00:28;17.92;;;7.30;;
43857;SDS011;29507;51.284;5.758;2023-04-28T02:02:53;14.38;;;7.22;;
43857;SDS011;29507;51.284;5.758;2023-04-28T02:05:19;19.27;;;8.43;;
43857;SDS011;29507;51.284;5.758;2023-04-28T02:07:45;16.98;;;8.10;;
43857;SDS011;29507;51.284;5.758;2023-04-28T02:10:10;16.75;;;8.10;;
43857;SDS011;29507;51.284;5.758;2023-04-28T02:12:36;14.80;;;7.15;;
43857;SDS011;29507;51.284;5.758;2023-04-28T02:15:01;16.60;;;7.20;;
43857;SDS011;29507;51.284;5.758;2023-04-28T02:17:30;13.70;;;7.03;;
43857;SDS011;29507;51.284;5.758;2023-04-28T02:19:56;17.65;;;7.82;;
43857;SDS011;29507;51.284;5.758;2023-04-28T02:22:22;17.40;;;7.68;;
43857;SDS011;29507;51.284;5.758;2023-04-28T02:24:48;14.30;;;6.95;;
43857;SDS011;29507;51.284;5.758;2023-04-28T02:27:14;16.75;;;8.20;;
43857;SDS011;29507;51.284;5.758;2023-04-28T02:29:40;12.77;;;7.05;;
43857;SDS011;29507;51.284;5.758;2023-04-28T02:32:06;16.50;;;8.02;;
43857;SDS011;29507;51.284;5.758;2023-04-28T02:34:32;16.20;;;6.85;;
43857;SDS011;29507;51.284;5.758;2023-04-28T02:36:57;14.52;;;7.72;;
43857;SDS011;29507;51.284;5.758;2023-04-28T02:39:23;15.00;;;7.68;;
43857;SDS011;29507;51.284;5.758;2023-04-28T02:41:51;17.33;;;7.93;;
43857;SDS011;29507;51.284;5.758;2023-04-28T02:44:17;12.73;;;6.85;;
43857;SDS011;29507;51.284;5.758;2023-04-28T02:46:42;14.52;;;7.82;;
43857;SDS011;29507;51.284;5.758;2023-04-28T02:49:08;15.80;;;7.72;;
43857;SDS011;29507;51.284;5.758;2023-04-28T02:51:33;14.48;;;7.47;;
43857;SDS011;29507;51.284;5.758;2023-04-28T02:53:59;14.88;;;7.28;;
43857;SDS011;29507;51.284;5.758;2023-04-28T02:56:25;16.88;;;8.48;;
43857;SDS011;29507;51.284;5.758;2023-04-28T02:58:50;16.55;;;7.88;;
43857;SDS011;29507;51.284;5.758;2023-04-28T03:01:16;15.65;;;8.25;;
43857;SDS011;29507;51.284;5.758;2023-04-28T03:03:42;21.13;;;8.32;;
43857;SDS011;29507;51.284;5.758;2023-04-28T03:06:07;17.40;;;8.27;;
43857;SDS011;29507;51.284;5.758;2023-04-28T03:08:33;17.02;;;7.57;;
43857;SDS011;29507;51.284;5.758;2023-04-28T03:10:58;18.27;;;8.13;;
43857;SDS011;29507;51.284;5.758;2023-04-28T03:13:24;15.50;;;8.18;;
43857;SDS011;29507;51.284;5.758;2023-04-28T03:15:50;18.55;;;7.97;;
43857;SDS011;29507;51.284;5.758;2023-04-28T03:18:16;19.85;;;7.45;;
43857;SDS011;29507;51.284;5.758;2023-04-28T03:20:42;20.85;;;9.35;;
43857;SDS011;29507;51.284;5.758;2023-04-28T03:23:08;15.82;;;7.63;;
43857;SDS011;29507;51.284;5.758;2023-04-28T03:25:34;19.73;;;8.55;;
43857;SDS011;29507;51.284;5.758;2023-04-28T03:28:00;16.00;;;8.77;;
43857;SDS011;29507;51.284;5.758;2023-04-28T03:30:26;17.48;;;8.80;;
43857;SDS011;29507;51.284;5.758;2023-04-28T03:32:52;16.92;;;8.40;;
43857;SDS011;29507;51.284;5.758;2023-04-28T03:35:17;23.27;;;8.98;;
43857;SDS011;29507;51.284;5.758;2023-04-28T03:37:43;17.17;;;9.43;;
43857;SDS011;29507;51.284;5.758;2023-04-28T03:40:09;17.88;;;9.73;;
43857;SDS011;29507;51.284;5.758;2023-04-28T03:42:35;14.43;;;8.57;;
43857;SDS011;29507;51.284;5.758;2023-04-28T03:45:01;15.40;;;8.60;;
43857;SDS011;29507;51.284;5.758;2023-04-28T03:47:26;20.63;;;9.00;;
43857;SDS011;29507;51.284;5.758;2023-04-28T03:49:52;15.00;;;7.75;;
43857;SDS011;29507;51.284;5.758;2023-04-28T03:52:18;20.08;;;8.13;;
43857;SDS011;29507;51.284;5.758;2023-04-28T03:54:43;18.00;;;9.30;;
43857;SDS011;29507;51.284;5.758;2023-04-28T03:57:10;12.35;;;7.65;;
43857;SDS011;29507;51.284;5.758;2023-04-28T03:59:36;24.05;;;9.95;;
43857;SDS011;29507;51.284;5.758;2023-04-28T04:02:02;16.58;;;9.32;;
43857;SDS011;29507;51.284;5.758;2023-04-28T04:04:28;15.93;;;8.80;;
43857;SDS011;29507;51.284;5.758;2023-04-28T04:06:53;21.52;;;9.43;;
43857;SDS011;29507;51.284;5.758;2023-04-28T04:09:19;16.38;;;8.75;;
43857;SDS011;29507;51.284;5.758;2023-04-28T04:11:45;21.42;;;9.52;;
43857;SDS011;29507;51.284;5.758;2023-04-28T04:14:11;18.17;;;9.23;;
43857;SDS011;29507;51.284;5.758;2023-04-28T04:16:36;15.90;;;8.27;;
43857;SDS011;29507;51.284;5.758;2023-04-28T04:19:02;15.82;;;7.90;;
43857;SDS011;29507;51.284;5.758;2023-04-28T04:21:27;19.08;;;8.88;;
43857;SDS011;29507;51.284;5.758;2023-04-28T04:23:53;16.38;;;8.60;;
43857;SDS011;29507;51.284;5.758;2023-04-28T04:26:19;23.67;;;8.80;;
43857;SDS011;29507;51.284;5.758;2023-04-28T04:28:45;15.50;;;8.60;;
43857;SDS011;29507;51.284;5.758;2023-04-28T04:31:10;15.50;;;8.00;;
43857;SDS011;29507;51.284;5.758;2023-04-28T04:33:36;18.08;;;9.07;;
43857;SDS011;29507;51.284;5.758;2023-04-28T04:36:02;17.25;;;9.32;;
43857;SDS011;29507;51.284;5.758;2023-04-28T04:38:28;17.98;;;8.85;;
43857;SDS011;29507;51.284;5.758;2023-04-28T04:40:55;19.63;;;8.45;;
43857;SDS011;29507;51.284;5.758;2023-04-28T04:43:21;16.30;;;8.93;;
43857;SDS011;29507;51.284;5.758;2023-04-28T04:45:46;15.63;;;8.82;;
43857;SDS011;29507;51.284;5.758;2023-04-28T04:48:12;15.57;;;8.52;;
43857;SDS011;29507;51.284;5.758;2023-04-28T04:50:38;16.88;;;7.57;;
43857;SDS011;29507;51.284;5.758;2023-04-28T04:53:04;17.80;;;8.60;;
43857;SDS011;29507;51.284;5.758;2023-04-28T04:55:30;18.05;;;8.77;;
43857;SDS011;29507;51.284;5.758;2023-04-28T04:57:56;16.65;;;8.63;;
43857;SDS011;29507;51.284;5.758;2023-04-28T05:00:21;17.83;;;8.48;;
43857;SDS011;29507;51.284;5.758;2023-04-28T05:02:47;14.43;;;8.00;;
43857;SDS011;29507;51.284;5.758;2023-04-28T05:05:13;15.27;;;8.05;;
43857;SDS011;29507;51.284;5.758;2023-04-28T05:07:38;15.40;;;8.55;;
43857;SDS011;29507;51.284;5.758;2023-04-28T05:10:04;16.55;;;8.65;;
43857;SDS011;29507;51.284;5.758;2023-04-28T05:12:31;19.48;;;8.45;;
43857;SDS011;29507;51.284;5.758;2023-04-28T05:14:57;14.07;;;8.73;;
43857;SDS011;29507;51.284;5.758;2023-04-28T05:17:22;18.30;;;8.98;;
43857;SDS011;29507;51.284;5.758;2023-04-28T05:19:48;15.85;;;7.68;;
43857;SDS011;29507;51.284;5.758;2023-04-28T05:22:14;16.77;;;7.93;;
43857;SDS011;29507;51.284;5.758;2023-04-28T05:24:40;15.25;;;8.55;;
43857;SDS011;29507;51.284;5.758;2023-04-28T05:27:05;18.23;;;9.10;;
43857;SDS011;29507;51.284;5.758;2023-04-28T05:29:31;13.15;;;8.18;;
43857;SDS011;29507;51.284;5.758;2023-04-28T05:31:57;17.13;;;8.35;;
43857;SDS011;29507;51.284;5.758;2023-04-28T05:34:22;14.35;;;7.68;;
43857;SDS011;29507;51.284;5.758;2023-04-28T05:36:48;13.18;;;7.93;;
43857;SDS011;29507;51.284;5.758;2023-04-28T05:39:15;17.02;;;8.93;;
43857;SDS011;29507;51.284;5.758;2023-04-28T05:41:41;16.60;;;8.65;;
43857;SDS011;29507;51.284;5.758;2023-04-28T05:44:07;14.80;;;8.10;;
43857;SDS011;29507;51.284;5.758;2023-04-28T05:46:32;13.38;;;7.28;;
43857;SDS011;29507;51.284;5.758;2023-04-28T05:48:58;12.52;;;7.25;;
43857;SDS011;29507;51.284;5.758;2023-04-28T05:51:24;15.02;;;7.43;;
43857;SDS011;29507;51.284;5.758;2023-04-28T05:53:49;15.23;;;8.25;;
43857;SDS011;29507;51.284;5.758;2023-04-28T05:56:15;17.50;;;8.43;;
43857;SDS011;29507;51.284;5.758;2023-04-28T05:58:41;12.98;;;7.03;;
43857;SDS011;29507;51.284;5.758;2023-04-28T06:01:08;18.45;;;8.35;;
43857;SDS011;29507;51.284;5.758;2023-04-28T06:03:34;15.75;;;8.27;;
43857;SDS011;29507;51.284;5.758;2023-04-28T06:06:00;13.63;;;7.95;;
43857;SDS011;29507;51.284;5.758;2023-04-28T06:08:26;18.10;;;7.80;;
43857;SDS011;29507;51.284;5.758;2023-04-28T06:10:51;13.80;;;7.13;;
43857;SDS011;29507;51.284;5.758;2023-04-28T06:13:17;11.60;;;7.07;;
43857;SDS011;29507;51.284;5.758;2023-04-28T06:15:43;12.82;;;6.95;;
43857;SDS011;29507;51.284;5.758;2023-04-28T06:18:08;15.80;;;7.28;;
43857;SDS011;29507;51.284;5.758;2023-04-28T06:20:35;15.13;;;7.88;;
43857;SDS011;29507;51.284;5.758;2023-04-28T06:23:00;15.32;;;8.02;;
43857;SDS011;29507;51.284;5.758;2023-04-28T06:25:27;11.02;;;7.25;;
43857;SDS011;29507;51.284;5.758;2023-04-28T06:27:53;11.60;;;6.93;;
43857;SDS011;29507;51.284;5.758;2023-04-28T06:30:20;12.45;;;7.85;;
43857;SDS011;29507;51.284;5.758;2023-04-28T06:32:47;11.70;;;7.20;;
43857;SDS011;29507;51.284;5.758;2023-04-28T06:35:13;10.88;;;6.70;;
43857;SDS011;29507;51.284;5.758;2023-04-28T06:37:40;14.43;;;7.32;;
43857;SDS011;29507;51.284;5.758;2023-04-28T06:40:05;11.00;;;6.72;;
43857;SDS011;29507;51.284;5.758;2023-04-28T06:42:32;14.13;;;6.68;;
43857;SDS011;29507;51.284;5.758;2023-04-28T06:44:57;17.48;;;6.18;;
43857;SDS011;29507;51.284;5.758;2023-04-28T06:47:23;11.85;;;6.45;;
43857;SDS011;29507;51.284;5.758;2023-04-28T06:49:49;12.73;;;6.60;;
43857;SDS011;29507;51.284;5.758;2023-04-28T06:52:15;11.50;;;5.88;;
43857;SDS011;29507;51.284;5.758;2023-04-28T06:54:40;11.10;;;6.20;;
43857;SDS011;29507;51.284;5.758;2023-04-28T06:57:06;12.93;;;7.22;;
43857;SDS011;29507;51.284;5.758;2023-04-28T06:59:31;11.68;;;6.72;;
43857;SDS011;29507;51.284;5.758;2023-04-28T07:01:57;13.30;;;7.45;;
43857;SDS011;29507;51.284;5.758;2023-04-28T07:04:23;13.18;;;7.35;;
43857;SDS011;29507;51.284;5.758;2023-04-28T07:06:48;13.73;;;7.78;;
43857;SDS011;29507;51.284;5.758;2023-04-28T07:09:14;14.02;;;7.68;;
43857;SDS011;29507;51.284;5.758;2023-04-28T07:11:41;18.83;;;8.75;;
43857;SDS011;29507;51.284;5.758;2023-04-28T07:14:07;12.85;;;8.00;;
43857;SDS011;29507;51.284;5.758;2023-04-28T07:16:32;13.50;;;8.77;;
43857;SDS011;29507;51.284;5.758;2023-04-28T07:18:58;13.88;;;7.88;;
43857;SDS011;29507;51.284;5.758;2023-04-28T07:21:24;15.32;;;8.40;;
43857;SDS011;29507;51.284;5.758;2023-04-28T07:23:49;13.60;;;8.20;;
43857;SDS011;29507;51.284;5.758;2023-04-28T07:26:15;15.13;;;8.02;;
43857;SDS011;29507;51.284;5.758;2023-04-28T07:28:42;13.68;;;8.25;;
43857;SDS011;29507;51.284;5.758;2023-04-28T07:31:08;10.85;;;6.75;;
43857;SDS011;29507;51.284;5.758;2023-04-28T07:33:33;12.13;;;7.10;;
43857;SDS011;29507;51.284;5.758;2023-04-28T07:35:59;12.10;;;6.90;;
43857;SDS011;29507;51.284;5.758;2023-04-28T07:38:25;14.27;;;7.50;;
43857;SDS011;29507;51.284;5.758;2023-04-28T07:40:50;11.75;;;7.47;;
43857;SDS011;29507;51.284;5.758;2023-04-28T07:43:16;12.07;;;7.35;;
43857;SDS011;29507;51.284;5.758;2023-04-28T07:45:42;14.32;;;7.15;;
43857;SDS011;29507;51.284;5.758;2023-04-28T07:48:09;12.63;;;7.15;;
43857;SDS011;29507;51.284;5.758;2023-04-28T07:50:35;12.98;;;7.20;;
43857;SDS011;29507;51.284;5.758;2023-04-28T07:53:00;12.45;;;6.47;;
43857;SDS011;29507;51.284;5.758;2023-04-28T07:55:26;11.40;;;6.72;;
43857;SDS011;29507;51.284;5.758;2023-04-28T07:57:52;12.35;;;6.25;;
43857;SDS011;29507;51.284;5.758;2023-04-28T08:00:18;16.02;;;7.50;;
43857;SDS011;29507;51.284;5.758;2023-04-28T08:02:44;17.17;;;7.22;;
43857;SDS011;29507;51.284;5.758;2023-04-28T08:05:09;11.60;;;6.90;;
43857;SDS011;29507;51.284;5.758;2023-04-28T08:07:35;9.23;;;5.88;;
43857;SDS011;29507;51.284;5.758;2023-04-28T08:10:01;16.23;;;8.13;;
43857;SDS011;29507;51.284;5.758;2023-04-28T08:12:28;12.68;;;7.65;;
43857;SDS011;29507;51.284;5.758;2023-04-28T08:14:53;15.35;;;7.50;;
43857;SDS011;29507;51.284;5.758;2023-04-28T08:17:19;9.98;;;6.60;;
43857;SDS011;29507;51.284;5.758;2023-04-28T08:19:44;13.80;;;7.50;;
43857;SDS011;29507;51.284;5.758;2023-04-28T08:22:11;12.05;;;7.80;;
43857;SDS011;29507;51.284;5.758;2023-04-28T08:24:37;15.35;;;8.77;;
43857;SDS011;29507;51.284;5.758;2023-04-28T08:27:03;16.55;;;7.68;;
43857;SDS011;29507;51.284;5.758;2023-04-28T08:29:29;14.00;;;8.45;;
43857;SDS011;29507;51.284;5.758;2023-04-28T08:31:55;13.80;;;7.65;;
43857;SDS011;29507;51.284;5.758;2023-04-28T08:34:21;14.13;;;8.40;;
43857;SDS011;29507;51.284;5.758;2023-04-28T08:36:47;11.93;;;8.32;;
43857;SDS011;29507;51.284;5.758;2023-04-28T08:39:13;15.18;;;8.55;;
43857;SDS011;29507;51.284;5.758;2023-04-28T08:41:38;15.70;;;8.73;;
43857;SDS011;29507;51.284;5.758;2023-04-28T08:44:06;15.93;;;8.20;;
43857;SDS011;29507;51.284;5.758;2023-04-28T08:46:33;12.85;;;8.35;;
43857;SDS011;29507;51.284;5.758;2023-04-28T08:48:59;14.43;;;7.97;;
43857;SDS011;29507;51.284;5.758;2023-04-28T08:51:32;11.80;;;7.53;;
43857;SDS011;29507;51.284;5.758;2023-04-28T08:53:58;12.65;;;8.55;;
43857;SDS011;29507;51.284;5.758;2023-04-28T08:56:30;12.32;;;8.35;;
43857;SDS011;29507;51.284;5.758;2023-04-28T08:59:03;15.50;;;8.77;;
43857;SDS011;29507;51.284;5.758;2023-04-28T09:01:32;20.17;;;7.80;;
43857;SDS011;29507;51.284;5.758;2023-04-28T09:06:34;13.07;;;7.65;;
43857;SDS011;29507;51.284;5.758;2023-04-28T09:14:17;12.27;;;7.88;;
43857;SDS011;29507;51.284;5.758;2023-04-28T09:16:42;15.15;;;7.35;;
43857;SDS011;29507;51.284;5.758;2023-04-28T09:19:08;10.90;;;7.05;;
43857;SDS011;29507;51.284;5.758;2023-04-28T09:21:44;10.00;;;6.88;;
43857;SDS011;29507;51.284;5.758;2023-04-28T09:24:39;12.50;;;7.55;;
43857;SDS011;29507;51.284;5.758;2023-04-28T09:27:07;10.13;;;6.82;;
43857;SDS011;29507;51.284;5.758;2023-04-28T09:29:36;11.07;;;7.03;;
43857;SDS011;29507;51.284;5.758;2023-04-28T09:32:18;10.35;;;6.97;;
43857;SDS011;29507;51.284;5.758;2023-04-28T09:34:46;10.07;;;6.95;;
43857;SDS011;29507;51.284;5.758;2023-04-28T09:39:49;13.20;;;8.27;;
43857;SDS011;29507;51.284;5.758;2023-04-28T09:42:35;11.35;;;7.45;;
43857;SDS011;29507;51.284;5.758;2023-04-28T09:47:36;12.68;;;7.57;;
43857;SDS011;29507;51.284;5.758;2023-04-28T09:52:32;12.48;;;7.45;;
43857;SDS011;29507;51.284;5.758;2023-04-28T09:55:00;12.70;;;7.47;;
43857;SDS011;29507;51.284;5.758;2023-04-28T09:57:31;12.77;;;7.93;;
43857;SDS011;29507;51.284;5.758;2023-04-28T09:59:57;12.73;;;7.63;;
43857;SDS011;29507;51.284;5.758;2023-04-28T10:02:24;9.15;;;6.68;;
43857;SDS011;29507;51.284;5.758;2023-04-28T10:04:50;12.73;;;7.68;;
43857;SDS011;29507;51.284;5.758;2023-04-28T10:07:17;11.10;;;7.22;;
43857;SDS011;29507;51.284;5.758;2023-04-28T10:09:45;11.57;;;7.50;;
43857;SDS011;29507;51.284;5.758;2023-04-28T10:12:14;10.38;;;6.57;;
43857;SDS011;29507;51.284;5.758;2023-04-28T10:14:47;10.95;;;7.05;;
43857;SDS011;29507;51.284;5.758;2023-04-28T10:17:14;12.63;;;7.70;;
43857;SDS011;29507;51.284;5.758;2023-04-28T10:19:41;10.25;;;7.00;;
43857;SDS011;29507;51.284;5.758;2023-04-28T10:25:15;9.93;;;6.65;;
43857;SDS011;29507;51.284;5.758;2023-04-28T10:27:56;11.48;;;7.57;;
43857;SDS011;29507;51.284;5.758;2023-04-28T10:30:23;10.65;;;6.80;;
43857;SDS011;29507;51.284;5.758;2023-04-28T10:35:39;11.80;;;7.22;;
43857;SDS011;29507;51.284;5.758;2023-04-28T10:38:19;10.98;;;6.20;;
43857;SDS011;29507;51.284;5.758;2023-04-28T10:40:48;8.38;;;5.95;;
43857;SDS011;29507;51.284;5.758;2023-04-28T10:56:18;8.75;;;6.07;;
43857;SDS011;29507;51.284;5.758;2023-04-28T11:01:23;8.57;;;6.25;;
43857;SDS011;29507;51.284;5.758;2023-04-28T11:09:01;8.20;;;5.15;;
43857;SDS011;29507;51.284;5.758;2023-04-28T11:16:49;8.10;;;5.80;;
43857;SDS011;29507;51.284;5.758;2023-04-28T11:19:20;7.55;;;5.50;;
43857;SDS011;29507;51.284;5.758;2023-04-28T11:21:48;7.38;;;5.40;;
43857;SDS011;29507;51.284;5.758;2023-04-28T11:24:14;7.93;;;5.15;;
43857;SDS011;29507;51.284;5.758;2023-04-28T11:26:41;6.50;;;4.35;;
43857;SDS011;29507;51.284;5.758;2023-04-28T11:29:07;7.07;;;4.00;;
43857;SDS011;29507;51.284;5.758;2023-04-28T11:31:33;5.82;;;4.03;;
43857;SDS011;29507;51.284;5.758;2023-04-28T11:34:02;4.95;;;2.92;;
43857;SDS011;29507;51.284;5.758;2023-04-28T11:38:59;5.43;;;3.28;;
43857;SDS011;29507;51.284;5.758;2023-04-28T11:41:29;5.63;;;3.35;;
43857;SDS011;29507;51.284;5.758;2023-04-28T11:43:56;6.38;;;2.45;;
43857;SDS011;29507;51.284;5.758;2023-04-28T11:46:22;4.38;;;2.90;;
43857;SDS011;29507;51.284;5.758;2023-04-28T11:48:58;4.38;;;2.67;;
43857;SDS011;29507;51.284;5.758;2023-04-28T11:53:56;3.10;;;1.40;;
43857;SDS011;29507;51.284;5.758;2023-04-28T11:56:21;3.67;;;1.25;;
43857;SDS011;29507;51.284;5.758;2023-04-28T11:58:58;2.78;;;1.45;;
43857;SDS011;29507;51.284;5.758;2023-04-28T12:01:28;3.65;;;1.35;;
43857;SDS011;29507;51.284;5.758;2023-04-28T12:03:55;1.85;;;1.00;;
43857;SDS011;29507;51.284;5.758;2023-04-28T12:06:20;2.40;;;0.85;;
43857;SDS011;29507;51.284;5.758;2023-04-28T12:08:47;2.88;;;1.08;;
43857;SDS011;29507;51.284;5.758;2023-04-28T12:11:13;4.97;;;0.80;;
43857;SDS011;29507;51.284;5.758;2023-04-28T12:13:39;1.85;;;0.80;;
43857;SDS011;29507;51.284;5.758;2023-04-28T12:16:06;3.00;;;0.95;;
43857;SDS011;29507;51.284;5.758;2023-04-28T12:18:33;1.52;;;0.80;;
43857;SDS011;29507;51.284;5.758;2023-04-28T12:21:03;3.28;;;0.90;;
43857;SDS011;29507;51.284;5.758;2023-04-28T12:25:58;3.45;;;1.33;;
43857;SDS011;29507;51.284;5.758;2023-04-28T12:28:37;1.42;;;0.70;;
43857;SDS011;29507;51.284;5.758;2023-04-28T12:31:05;1.90;;;0.82;;
43857;SDS011;29507;51.284;5.758;2023-04-28T12:33:32;1.60;;;0.80;;
43857;SDS011;29507;51.284;5.758;2023-04-28T12:36:02;4.90;;;1.00;;
43857;SDS011;29507;51.284;5.758;2023-04-28T12:38:28;1.83;;;0.80;;
43857;SDS011;29507;51.284;5.758;2023-04-28T12:40:54;1.98;;;1.00;;
43857;SDS011;29507;51.284;5.758;2023-04-28T12:43:20;1.15;;;0.70;;
43857;SDS011;29507;51.284;5.758;2023-04-28T12:45:51;1.38;;;0.70;;
43857;SDS011;29507;51.284;5.758;2023-04-28T12:48:18;2.58;;;1.15;;
43857;SDS011;29507;51.284;5.758;2023-04-28T12:50:44;1.83;;;0.77;;
43857;SDS011;29507;51.284;5.758;2023-04-28T12:53:10;1.33;;;0.77;;
43857;SDS011;29507;51.284;5.758;2023-04-28T12:55:35;1.60;;;0.93;;
43857;SDS011;29507;51.284;5.758;2023-04-28T12:58:03;2.10;;;1.08;;
43857;SDS011;29507;51.284;5.758;2023-04-28T13:00:29;1.98;;;1.02;;
43857;SDS011;29507;51.284;5.758;2023-04-28T13:02:55;2.67;;;0.95;;
43857;SDS011;29507;51.284;5.758;2023-04-28T13:05:21;2.05;;;0.90;;
43857;SDS011;29507;51.284;5.758;2023-04-28T13:07:47;1.85;;;0.80;;
43857;SDS011;29507;51.284;5.758;2023-04-28T13:10:14;1.45;;;0.70;;
43857;SDS011;29507;51.284;5.758;2023-04-28T13:12:39;1.02;;;0.55;;
43857;SDS011;29507;51.284;5.758;2023-04-28T13:15:05;1.77;;;0.63;;
43857;SDS011;29507;51.284;5.758;2023-04-28T13:17:31;0.90;;;0.50;;
43857;SDS011;29507;51.284;5.758;2023-04-28T13:19:58;1.52;;;0.68;;
43857;SDS011;29507;51.284;5.758;2023-04-28T13:22:25;2.03;;;0.73;;
43857;SDS011;29507;51.284;5.758;2023-04-28T13:24:51;1.88;;;0.70;;
43857;SDS011;29507;51.284;5.758;2023-04-28T13:27:17;2.22;;;0.75;;
43857;SDS011;29507;51.284;5.758;2023-04-28T13:29:42;1.65;;;0.70;;
43857;SDS011;29507;51.284;5.758;2023-04-28T13:32:08;1.85;;;0.75;;
43857;SDS011;29507;51.284;5.758;2023-04-28T13:34:34;1.58;;;0.70;;
43857;SDS011;29507;51.284;5.758;2023-04-28T13:37:01;2.10;;;0.85;;
43857;SDS011;29507;51.284;5.758;2023-04-28T13:39:27;3.78;;;0.90;;
43857;SDS011;29507;51.284;5.758;2023-04-28T13:41:53;1.98;;;1.00;;
43857;SDS011;29507;51.284;5.758;2023-04-28T13:44:18;1.83;;;1.20;;
43857;SDS011;29507;51.284;5.758;2023-04-28T13:46:45;2.33;;;1.13;;
43857;SDS011;29507;51.284;5.758;2023-04-28T13:49:11;4.05;;;1.30;;
43857;SDS011;29507;51.284;5.758;2023-04-28T13:51:37;3.13;;;1.45;;
43857;SDS011;29507;51.284;5.758;2023-04-28T13:54:03;2.85;;;1.55;;
43857;SDS011;29507;51.284;5.758;2023-04-28T13:56:32;3.45;;;1.83;;
43857;SDS011;29507;51.284;5.758;2023-04-28T13:58:57;4.60;;;1.67;;
43857;SDS011;29507;51.284;5.758;2023-04-28T14:01:23;4.40;;;2.08;;
43857;SDS011;29507;51.284;5.758;2023-04-28T14:03:49;6.25;;;2.25;;
43857;SDS011;29507;51.284;5.758;2023-04-28T14:06:15;4.88;;;2.35;;
43857;SDS011;29507;51.284;5.758;2023-04-28T14:08:40;4.28;;;2.45;;
43857;SDS011;29507;51.284;5.758;2023-04-28T14:11:06;3.47;;;2.63;;
43857;SDS011;29507;51.284;5.758;2023-04-28T14:13:32;4.22;;;2.35;;
43857;SDS011;29507;51.284;5.758;2023-04-28T14:15:58;3.83;;;2.72;;
43857;SDS011;29507;51.284;5.758;2023-04-28T14:18:23;4.95;;;3.05;;
43857;SDS011;29507;51.284;5.758;2023-04-28T14:20:49;4.85;;;3.10;;
43857;SDS011;29507;51.284;5.758;2023-04-28T14:23:15;4.60;;;3.28;;
43857;SDS011;29507;51.284;5.758;2023-04-28T14:25:40;4.82;;;3.08;;
43857;SDS011;29507;51.284;5.758;2023-04-28T14:28:06;4.07;;;2.67;;
43857;SDS011;29507;51.284;5.758;2023-04-28T14:30:32;4.35;;;2.63;;
43857;SDS011;29507;51.284;5.758;2023-04-28T14:32:58;4.07;;;2.72;;
43857;SDS011;29507;51.284;5.758;2023-04-28T14:35:23;4.63;;;2.70;;
43857;SDS011;29507;51.284;5.758;2023-04-28T14:37:50;6.30;;;3.00;;
43857;SDS011;29507;51.284;5.758;2023-04-28T14:40:17;4.60;;;2.88;;
43857;SDS011;29507;51.284;5.758;2023-04-28T14:42:42;5.15;;;2.78;;
43857;SDS011;29507;51.284;5.758;2023-04-28T14:45:08;4.47;;;2.92;;
43857;SDS011;29507;51.284;5.758;2023-04-28T14:47:35;4.30;;;2.58;;
43857;SDS011;29507;51.284;5.758;2023-04-28T14:50:02;4.88;;;3.20;;
43857;SDS011;29507;51.284;5.758;2023-04-28T14:52:28;5.68;;;3.17;;
43857;SDS011;29507;51.284;5.758;2023-04-28T14:54:57;6.05;;;3.95;;
43857;SDS011;29507;51.284;5.758;2023-04-28T14:57:24;6.35;;;4.00;;
43857;SDS011;29507;51.284;5.758;2023-04-28T14:59:49;9.07;;;4.57;;
43857;SDS011;29507;51.284;5.758;2023-04-28T15:02:19;5.70;;;3.70;;
43857;SDS011;29507;51.284;5.758;2023-04-28T15:04:50;8.32;;;4.22;;
43857;SDS011;29507;51.284;5.758;2023-04-28T15:07:16;5.90;;;4.05;;
43857;SDS011;29507;51.284;5.758;2023-04-28T15:09:42;6.68;;;4.22;;
43857;SDS011;29507;51.284;5.758;2023-04-28T15:12:08;7.15;;;4.90;;
43857;SDS011;29507;51.284;5.758;2023-04-28T15:14:33;6.53;;;3.92;;
43857;SDS011;29507;51.284;5.758;2023-04-28T15:16:59;6.32;;;3.17;;
43857;SDS011;29507;51.284;5.758;2023-04-28T15:19:25;5.43;;;2.95;;
43857;SDS011;29507;51.284;5.758;2023-04-28T15:21:50;7.68;;;3.65;;
43857;SDS011;29507;51.284;5.758;2023-04-28T15:24:17;6.72;;;3.13;;
43857;SDS011;29507;51.284;5.758;2023-04-28T15:26:44;5.10;;;2.90;;
43857;SDS011;29507;51.284;5.758;2023-04-28T15:29:10;5.07;;;2.90;;